createdAt,value
2022-11-03T00:01:33.687Z,49.43
2022-11-03T00:03:59.306Z,48.82
2022-11-03T00:06:24.862Z,48.85
2022-11-03T00:08:50.561Z,48.92
2022-11-03T00:11:17.816Z,49.65
2022-11-03T00:13:43.373Z,48.83
2022-11-03T00:16:09.605Z,49.04
2022-11-03T00:18:35.152Z,48.99
2022-11-03T00:21:01.935Z,48.95
2022-11-03T00:23:28.520Z,49.59
2022-11-03T00:25:54.054Z,49.26
2022-11-03T00:28:19.613Z,49.05
2022-11-03T00:30:45.149Z,49.03
2022-11-03T00:33:10.698Z,49.57
2022-11-03T00:35:36.241Z,49.16
2022-11-03T00:38:01.795Z,49.35
2022-11-03T00:40:27.333Z,48.88
2022-11-03T00:42:52.881Z,48.87
2022-11-03T00:45:18.426Z,49.26
2022-11-03T00:48:03.868Z,49.66
2022-11-03T00:50:29.408Z,48.82
2022-11-03T00:52:54.958Z,48.89
2022-11-03T00:55:20.493Z,48.86
2022-11-03T00:57:46.049Z,49.61
2022-11-03T01:00:11.723Z,49.36
2022-11-03T01:02:37.349Z,48.94
2022-11-03T01:05:22.965Z,48.91
2022-11-03T01:07:48.584Z,49.46
2022-11-03T01:10:14.173Z,48.85
2022-11-03T01:12:39.720Z,48.95
2022-11-03T01:15:05.403Z,49.44
2022-11-03T01:17:30.951Z,48.90
2022-11-03T01:19:56.492Z,49.08
2022-11-03T01:22:22.325Z,48.94
2022-11-03T01:24:47.867Z,48.91
2022-11-03T01:27:14.609Z,49.06
2022-11-03T01:29:40.238Z,48.95
2022-11-03T01:32:05.785Z,48.78
2022-11-03T01:34:31.327Z,49.10
2022-11-03T01:36:57.422Z,48.89
2022-11-03T01:39:22.968Z,48.76
2022-11-03T01:41:49.232Z,48.95
2022-11-03T01:46:58.143Z,49.51
2022-11-03T01:49:40.564Z,48.92
2022-11-03T01:52:07.987Z,49.49
2022-11-03T01:54:33.540Z,49.00
2022-11-03T01:56:59.092Z,49.04
2022-11-03T01:59:24.664Z,49.04
2022-11-03T02:01:50.290Z,49.61
2022-11-03T02:04:17.325Z,49.21
2022-11-03T02:06:42.879Z,49.26
2022-11-03T02:09:08.432Z,49.60
2022-11-03T02:11:54.236Z,49.75
2022-11-03T02:14:19.901Z,49.68
2022-11-03T02:16:48.721Z,49.06
2022-11-03T02:19:18.940Z,49.39
2022-11-03T02:21:48.010Z,49.56
2022-11-03T02:24:24.068Z,49.61
2022-11-03T02:26:49.872Z,49.44
2022-11-03T02:29:15.413Z,49.79
2022-11-03T02:31:41.820Z,49.08
2022-11-03T02:34:07.948Z,49.69
2022-11-03T02:36:40.215Z,49.27
2022-11-03T02:39:22.300Z,49.55
2022-11-03T02:41:47.849Z,48.93
2022-11-03T02:44:14.169Z,49.67
2022-11-03T02:46:40.346Z,49.62
2022-11-03T02:49:05.882Z,49.49
2022-11-03T02:51:31.435Z,49.46
2022-11-03T02:54:02.778Z,49.44
2022-11-03T02:56:28.328Z,49.36
2022-11-03T02:58:56.569Z,49.03
2022-11-03T03:01:46.222Z,48.95
2022-11-03T03:04:12.929Z,49.64
2022-11-03T03:06:41.670Z,49.58
2022-11-03T03:09:08.618Z,49.59
2022-11-03T03:11:38.286Z,49.80
2022-11-03T03:14:05.823Z,49.65
2022-11-03T03:16:31.393Z,49.47
2022-11-03T03:19:00.413Z,49.03
2022-11-03T03:21:26.320Z,49.01
2022-11-03T03:23:54.314Z,49.11
2022-11-03T03:26:22.924Z,49.37
2022-11-03T03:28:50.812Z,49.82
2022-11-03T03:31:16.353Z,49.99
2022-11-03T03:33:44.983Z,48.90
2022-11-03T03:36:14.066Z,49.24
2022-11-03T03:38:40.833Z,49.90
2022-11-03T03:41:10.529Z,49.77
2022-11-03T03:43:36.469Z,49.12
2022-11-03T03:46:03.578Z,49.50
2022-11-03T03:48:29.129Z,49.50
2022-11-03T03:50:54.837Z,49.87
2022-11-03T03:53:20.395Z,49.40
2022-11-03T03:55:47.704Z,49.93
2022-11-03T03:58:13.619Z,49.88
2022-11-03T04:00:42.023Z,49.81
2022-11-03T04:03:12.454Z,49.97
2022-11-03T04:05:38.248Z,49.93
2022-11-03T04:08:04.160Z,49.70
2022-11-03T04:10:29.886Z,49.81
2022-11-03T04:13:15.328Z,50.01
2022-11-03T04:16:00.762Z,49.34
2022-11-03T04:18:46.245Z,49.94
2022-11-03T04:21:32.217Z,49.19
2022-11-03T04:23:59.545Z,50.01
2022-11-03T04:26:25.483Z,49.84
2022-11-03T04:28:51.270Z,49.97
2022-11-03T04:31:17.649Z,49.85
2022-11-03T04:33:43.344Z,50.01
2022-11-03T04:36:11.687Z,49.91
2022-11-03T04:38:37.235Z,49.97
2022-11-03T04:41:05.861Z,49.93
2022-11-03T04:43:32.612Z,49.86
2022-11-03T04:45:58.170Z,49.84
2022-11-03T04:48:24.241Z,49.84
2022-11-03T04:50:51.621Z,49.95
2022-11-03T04:53:17.552Z,49.68
2022-11-03T04:55:43.549Z,49.83
2022-11-03T04:58:12.475Z,49.82
2022-11-03T05:00:38.019Z,50.02
2022-11-03T05:03:03.566Z,49.91
2022-11-03T05:05:29.107Z,49.83
2022-11-03T05:07:55.188Z,49.90
2022-11-03T05:10:22.249Z,49.97
2022-11-03T05:12:47.799Z,50.00
2022-11-03T05:15:33.784Z,50.12
2022-11-03T05:18:01.491Z,50.06
2022-11-03T05:20:36.393Z,50.12
2022-11-03T05:23:02.308Z,49.97
2022-11-03T05:25:32.886Z,50.02
2022-11-03T05:27:58.437Z,49.93
2022-11-03T05:30:23.986Z,49.73
2022-11-03T05:32:49.538Z,49.74
2022-11-03T05:35:18.760Z,49.92
2022-11-03T05:37:44.318Z,49.99
2022-11-03T05:40:25.216Z,49.99
2022-11-03T05:42:51.316Z,50.06
2022-11-03T05:45:20.554Z,50.04
2022-11-03T05:47:46.099Z,49.95
2022-11-03T05:50:14.173Z,50.15
2022-11-03T05:52:39.720Z,50.01
2022-11-03T05:55:05.341Z,50.05
2022-11-03T05:57:30.891Z,50.09
2022-11-03T05:59:56.436Z,50.01
2022-11-03T06:02:38.037Z,50.06
2022-11-03T06:05:19.673Z,49.53
2022-11-03T06:07:45.222Z,49.84
2022-11-03T06:10:26.908Z,49.69
2022-11-03T06:12:53.791Z,49.71
2022-11-03T06:15:25.482Z,50.00
2022-11-03T06:17:52.731Z,50.02
2022-11-03T06:20:18.272Z,49.77
2022-11-03T06:22:44.859Z,49.95
2022-11-03T06:25:14.987Z,50.11
2022-11-03T06:27:40.678Z,50.12
2022-11-03T06:30:26.172Z,50.12
2022-11-03T06:32:51.924Z,49.86
2022-11-03T06:35:17.476Z,50.05
2022-11-03T06:37:43.044Z,49.22
2022-11-03T06:42:43.553Z,50.06
2022-11-03T06:45:11.768Z,49.54
2022-11-03T06:47:37.912Z,49.85
2022-11-03T06:50:06.877Z,47.94
2022-11-03T06:52:33.276Z,48.39
2022-11-03T06:55:00.144Z,48.47
2022-11-03T06:57:25.690Z,49.00
2022-11-03T07:00:06.605Z,48.45
2022-11-03T07:02:45.954Z,49.21
2022-11-03T07:05:17.443Z,47.89
2022-11-03T07:07:43.279Z,49.18
2022-11-03T07:10:09.080Z,48.26
2022-11-03T07:12:34.641Z,48.24
2022-11-03T07:15:00.242Z,49.04
2022-11-03T07:17:25.848Z,48.11
2022-11-03T07:19:52.100Z,48.28
2022-11-03T07:22:19.311Z,48.07
2022-11-03T07:24:45.260Z,48.25
2022-11-03T07:27:26.467Z,48.13
2022-11-03T07:29:52.468Z,47.58
2022-11-03T07:32:18.609Z,47.94
2022-11-03T07:34:44.147Z,47.83
2022-11-03T07:37:18.147Z,47.88
2022-11-03T07:39:43.694Z,47.80
2022-11-03T07:42:25.194Z,48.17
2022-11-03T07:44:50.731Z,48.04
2022-11-03T07:47:19.821Z,48.37
2022-11-03T07:49:45.382Z,48.34
2022-11-03T07:52:11.571Z,48.12
2022-11-03T07:54:37.125Z,48.29
2022-11-03T07:57:04.754Z,48.26
2022-11-03T07:59:31.558Z,48.15
2022-11-03T08:01:57.917Z,48.35
2022-11-03T08:04:25.131Z,48.26
2022-11-03T08:06:50.886Z,48.14
2022-11-03T08:09:16.693Z,48.55
2022-11-03T08:11:42.277Z,47.47
2022-11-03T08:14:08.450Z,47.61
2022-11-03T08:16:34.006Z,47.43
2022-11-03T08:18:59.565Z,47.49
2022-11-03T08:21:25.111Z,47.39
2022-11-03T08:23:50.776Z,47.48
2022-11-03T08:26:16.330Z,47.49
2022-11-03T08:28:41.890Z,46.23
2022-11-03T08:31:12.252Z,46.57
2022-11-03T08:33:38.653Z,46.29
2022-11-03T08:36:04.325Z,46.66
2022-11-03T08:38:29.877Z,46.48
2022-11-03T08:40:55.637Z,46.48
2022-11-03T08:43:21.185Z,46.57
2022-11-03T08:45:46.765Z,46.79
2022-11-03T08:48:12.905Z,46.74
2022-11-03T08:50:38.460Z,46.65
2022-11-03T08:53:04.021Z,46.39
2022-11-03T08:55:29.568Z,46.05
2022-11-03T08:57:55.290Z,46.35
2022-11-03T09:00:21.737Z,46.34
2022-11-03T09:02:47.292Z,46.94
2022-11-03T09:05:12.837Z,46.72
2022-11-03T09:10:28.512Z,46.83
2022-11-03T09:13:00.003Z,47.16
2022-11-03T09:15:25.604Z,47.19
2022-11-03T09:17:51.272Z,47.20
2022-11-03T09:20:16.821Z,47.03
2022-11-03T09:22:42.381Z,47.00
2022-11-03T09:25:08.107Z,46.28
2022-11-03T09:27:33.667Z,46.56
2022-11-03T09:30:12.724Z,46.61
2022-11-03T09:32:39.224Z,46.90
2022-11-03T09:35:05.081Z,47.04
2022-11-03T09:37:30.684Z,47.13
2022-11-03T09:39:57.135Z,47.22
2022-11-03T09:42:23.232Z,46.72
2022-11-03T09:44:50.820Z,46.72
2022-11-03T09:47:19.195Z,46.95
2022-11-03T09:49:44.741Z,47.08
2022-11-03T09:52:10.339Z,46.53
2022-11-03T09:54:35.895Z,46.61
2022-11-03T09:57:04.997Z,46.78
2022-11-03T09:59:30.625Z,46.95
2022-11-03T10:01:56.278Z,45.97
2022-11-03T10:04:25.161Z,46.37
2022-11-03T10:06:50.718Z,46.71
2022-11-03T10:09:16.661Z,46.50
2022-11-03T10:11:42.626Z,46.47
2022-11-03T10:14:08.996Z,46.93
2022-11-03T10:16:34.543Z,46.54
2022-11-03T10:19:00.192Z,46.21
2022-11-03T10:21:27.576Z,46.68
2022-11-03T10:23:53.135Z,46.49
2022-11-03T10:26:19.434Z,46.32
2022-11-03T10:29:01.370Z,46.62
2022-11-03T10:31:34.810Z,46.40
2022-11-03T10:34:00.555Z,46.78
2022-11-03T10:36:26.904Z,46.89
2022-11-03T10:38:52.576Z,47.18
2022-11-03T10:41:18.978Z,46.70
2022-11-03T10:43:54.375Z,47.02
2022-11-03T10:46:49.539Z,47.23
2022-11-03T10:49:11.533Z,47.07
2022-11-03T10:51:37.138Z,46.91
2022-11-03T10:54:02.993Z,46.94
2022-11-03T10:56:29.080Z,47.47
2022-11-03T10:58:54.669Z,47.46
2022-11-03T11:01:20.348Z,47.05
2022-11-03T11:03:46.071Z,47.47
2022-11-03T11:06:20.240Z,47.42
2022-11-03T11:08:45.925Z,47.32
2022-11-03T11:11:13.736Z,47.02
2022-11-03T11:13:40.398Z,46.93
2022-11-03T11:16:06.307Z,47.13
2022-11-03T11:23:56.477Z,46.76
2022-11-03T11:26:28.744Z,46.94
2022-11-03T11:31:44.163Z,47.09
2022-11-03T11:36:46.562Z,47.05
2022-11-03T11:39:12.760Z,47.50
2022-11-03T11:41:58.253Z,47.55
2022-11-03T11:47:33.465Z,47.25
2022-11-03T11:50:09.355Z,47.35
2022-11-03T11:52:41.026Z,47.27
2022-11-03T11:55:11.599Z,47.86
2022-11-03T11:57:37.156Z,47.83
2022-11-03T12:00:03.328Z,47.49
2022-11-03T12:02:29.393Z,47.16
2022-11-03T12:05:00.359Z,47.25
2022-11-03T12:07:33.270Z,47.19
2022-11-03T12:10:14.888Z,47.08
2022-11-03T12:12:40.448Z,46.72
2022-11-03T12:15:06.198Z,47.00
2022-11-03T12:17:32.335Z,47.02
2022-11-03T12:19:57.874Z,46.86
2022-11-03T12:24:59.902Z,47.37
2022-11-03T12:30:02.869Z,48.00
2022-11-03T12:32:35.860Z,47.87
2022-11-03T12:35:03.235Z,47.85
2022-11-03T12:37:28.801Z,47.85
2022-11-03T12:39:54.352Z,47.20
2022-11-03T12:42:20.234Z,48.40
2022-11-03T12:44:45.847Z,47.99
2022-11-03T12:47:11.457Z,47.78
2022-11-03T12:49:37.011Z,48.12
2022-11-03T12:52:08.108Z,47.78
2022-11-03T12:54:34.113Z,48.28
2022-11-03T12:56:59.872Z,47.96
2022-11-03T12:59:25.417Z,47.93
2022-11-03T13:01:51.235Z,47.72
2022-11-03T13:04:16.836Z,48.73
2022-11-03T13:06:42.602Z,48.29
2022-11-03T13:09:08.149Z,47.75
2022-11-03T13:11:53.603Z,47.43
2022-11-03T13:14:19.164Z,47.62
2022-11-03T13:16:44.716Z,46.04
2022-11-03T13:19:10.259Z,47.15
2022-11-03T13:21:36.068Z,47.08
2022-11-03T13:24:01.616Z,46.91
2022-11-03T13:26:27.186Z,45.27
2022-11-03T13:28:52.752Z,46.42
2022-11-03T13:31:18.311Z,46.94
2022-11-03T13:33:43.871Z,46.85
2022-11-03T13:36:09.479Z,46.98
2022-11-03T13:38:35.140Z,47.90
2022-11-03T13:41:06.960Z,47.21
2022-11-03T13:43:33.847Z,46.86
2022-11-03T13:46:01.530Z,46.38
2022-11-03T13:51:16.726Z,46.39
2022-11-03T13:56:28.386Z,46.27
2022-11-03T14:01:41.064Z,46.55
2022-11-03T14:06:52.693Z,46.31
2022-11-03T14:09:18.246Z,46.64
2022-11-03T14:12:03.692Z,46.36
2022-11-03T14:14:29.238Z,45.53
2022-11-03T14:16:54.868Z,45.82
2022-11-03T14:19:20.573Z,46.06
2022-11-03T14:21:46.134Z,46.35
2022-11-03T14:24:11.683Z,46.23
2022-11-03T14:26:42.676Z,46.25
2022-11-03T14:29:08.713Z,46.35
2022-11-03T14:31:34.265Z,46.34
2022-11-03T14:33:59.807Z,46.32
2022-11-03T14:36:25.352Z,48.05
2022-11-03T14:38:50.904Z,48.25
2022-11-03T14:41:36.355Z,48.21
2022-11-03T14:44:02.594Z,48.19
2022-11-03T14:46:28.900Z,47.04
2022-11-03T14:48:54.595Z,44.97
2022-11-03T14:51:20.145Z,46.79
2022-11-03T14:53:45.684Z,47.39
2022-11-03T14:56:11.334Z,47.49
2022-11-03T14:58:36.932Z,47.69
2022-11-03T15:01:02.570Z,47.73
2022-11-03T15:03:28.179Z,47.70
2022-11-03T15:05:54.803Z,47.49
2022-11-03T15:08:20.937Z,47.82
2022-11-03T15:10:46.475Z,47.84
2022-11-03T15:13:12.036Z,47.84
2022-11-03T15:15:40.599Z,47.72
2022-11-03T15:18:06.697Z,47.85
2022-11-03T15:20:34.657Z,47.75
2022-11-03T15:25:46.494Z,47.78
2022-11-03T15:28:12.043Z,47.59
2022-11-03T15:30:37.601Z,47.89
2022-11-03T15:33:03.288Z,47.79
2022-11-03T15:35:28.973Z,47.70
2022-11-03T15:37:54.612Z,48.01
2022-11-03T15:40:20.367Z,47.92
2022-11-03T15:42:45.921Z,48.01
2022-11-03T15:45:12.191Z,48.06
2022-11-03T15:47:38.311Z,47.34
2022-11-03T15:50:04.401Z,46.73
2022-11-03T15:52:29.995Z,47.25
2022-11-03T15:54:55.545Z,47.47
2022-11-03T15:57:21.094Z,47.36
2022-11-03T15:59:46.643Z,47.18
2022-11-03T16:02:35.666Z,47.17
2022-11-03T16:04:57.717Z,48.17
2022-11-03T16:07:23.371Z,47.91
2022-11-03T16:09:48.915Z,47.92
2022-11-03T16:12:14.549Z,48.13
2022-11-03T16:14:40.111Z,48.31
2022-11-03T16:17:06.152Z,48.00
2022-11-03T16:19:31.912Z,48.29
2022-11-03T16:21:57.527Z,48.29
2022-11-03T16:24:24.837Z,48.24
2022-11-03T16:26:55.282Z,48.16
2022-11-03T16:29:20.825Z,47.89
2022-11-03T16:31:48.333Z,48.24
2022-11-03T16:34:13.885Z,48.18
2022-11-03T16:36:39.426Z,48.26
2022-11-03T16:39:04.982Z,48.18
2022-11-03T16:41:30.524Z,48.24
2022-11-03T16:43:56.143Z,48.26
2022-11-03T16:46:21.683Z,48.30
2022-11-03T16:48:47.292Z,48.27
2022-11-03T16:51:13.094Z,48.19
2022-11-03T16:53:38.652Z,48.27
2022-11-03T16:56:04.281Z,48.18
2022-11-03T16:58:29.826Z,48.25
2022-11-03T17:00:55.431Z,48.26
2022-11-03T17:03:21.012Z,48.36
2022-11-03T17:05:46.556Z,48.36
2022-11-03T17:08:32.016Z,48.69
2022-11-03T17:10:57.723Z,48.92
2022-11-03T17:13:23.284Z,49.54
2022-11-03T17:15:48.821Z,51.41
2022-11-03T17:18:14.388Z,50.22
2022-11-03T17:20:39.929Z,52.00
2022-11-03T17:23:05.480Z,52.01
2022-11-03T17:25:31.283Z,51.85
2022-11-03T17:27:57.079Z,51.59
2022-11-03T17:30:23.479Z,52.05
2022-11-03T17:32:49.981Z,51.66
2022-11-03T17:35:18.047Z,51.59
2022-11-03T17:37:43.702Z,51.17
2022-11-03T17:40:17.179Z,51.23
2022-11-03T17:42:42.952Z,51.43
2022-11-03T17:45:10.678Z,51.25
2022-11-03T17:47:36.224Z,51.09
2022-11-03T17:50:01.769Z,51.40
2022-11-03T17:52:28.592Z,51.13
2022-11-03T17:54:55.328Z,51.40
2022-11-03T17:57:21.361Z,51.25
2022-11-03T17:59:48.627Z,51.16
2022-11-03T18:02:16.495Z,51.01
2022-11-03T18:04:42.704Z,50.97
2022-11-03T18:07:12.862Z,51.05
2022-11-03T18:09:38.411Z,50.83
2022-11-03T18:12:23.908Z,51.01
2022-11-03T18:14:49.457Z,50.84
2022-11-03T18:17:15.027Z,50.71
2022-11-03T18:19:40.700Z,50.64
2022-11-03T18:22:07.552Z,50.70
2022-11-03T18:24:33.085Z,50.59
2022-11-03T18:26:58.632Z,50.30
2022-11-03T18:29:24.178Z,50.45
2022-11-03T18:31:49.862Z,50.55
2022-11-03T18:34:16.741Z,50.75
2022-11-03T18:36:42.289Z,50.62
2022-11-03T18:39:09.302Z,50.52
2022-11-03T18:41:35.821Z,50.50
2022-11-03T18:44:01.829Z,50.40
2022-11-03T18:46:27.509Z,50.41
2022-11-03T18:48:53.265Z,50.17
2022-11-03T18:51:18.797Z,50.35
2022-11-03T18:53:44.341Z,50.43
2022-11-03T18:56:10.945Z,50.28
2022-11-03T18:58:36.502Z,50.35
2022-11-03T19:01:02.245Z,50.27
2022-11-03T19:03:27.869Z,50.21
2022-11-03T19:05:53.414Z,50.27
2022-11-03T19:08:20.592Z,50.21
2022-11-03T19:10:46.636Z,50.33
2022-11-03T19:13:13.483Z,50.20
2022-11-03T19:15:39.028Z,50.26
2022-11-03T19:18:04.906Z,50.16
2022-11-03T19:20:30.653Z,50.20
2022-11-03T19:22:56.880Z,50.15
2022-11-03T19:25:22.415Z,50.00
2022-11-03T19:27:47.964Z,49.99
2022-11-03T19:30:14.444Z,50.09
2022-11-03T19:32:41.009Z,50.08
2022-11-03T19:35:07.628Z,50.08
2022-11-03T19:37:35.728Z,49.96
2022-11-03T19:40:01.751Z,49.98
2022-11-03T19:42:27.309Z,49.94
2022-11-03T19:44:53.723Z,50.05
2022-11-03T19:47:19.273Z,49.89
2022-11-03T19:49:44.808Z,49.84
2022-11-03T19:52:12.244Z,49.81
2022-11-03T19:54:38.218Z,49.82
2022-11-03T19:57:04.609Z,49.97
2022-11-03T19:59:30.556Z,49.84
2022-11-03T20:01:56.256Z,49.93
2022-11-03T20:04:22.151Z,49.73
2022-11-03T20:06:47.709Z,49.80
2022-11-03T20:09:14.686Z,49.77
2022-11-03T20:11:40.256Z,49.74
2022-11-03T20:14:05.798Z,49.87
2022-11-03T20:16:31.342Z,49.84
2022-11-03T20:18:57.132Z,49.84
2022-11-03T20:21:22.671Z,49.80
2022-11-03T20:23:48.431Z,49.75
2022-11-03T20:26:15.398Z,49.72
2022-11-03T20:28:40.968Z,49.71
2022-11-03T20:31:06.904Z,49.82
2022-11-03T20:33:32.625Z,49.77
2022-11-03T20:35:58.180Z,49.76
2022-11-03T20:38:24.296Z,49.76
2022-11-03T20:40:57.247Z,49.82
2022-11-03T20:43:26.268Z,49.73
2022-11-03T20:45:52.802Z,49.65
2022-11-03T20:48:18.351Z,49.71
2022-11-03T20:50:43.942Z,49.71
2022-11-03T20:53:18.169Z,49.70
2022-11-03T20:55:43.826Z,49.64
2022-11-03T20:58:11.123Z,49.62
2022-11-03T21:00:36.661Z,49.60
2022-11-03T21:03:02.210Z,49.71
2022-11-03T21:05:27.857Z,49.64
2022-11-03T21:07:54.162Z,49.58
2022-11-03T21:10:20.890Z,49.65
2022-11-03T21:12:46.604Z,49.53
2022-11-03T21:15:33.133Z,49.63
2022-11-03T21:18:18.592Z,49.49
2022-11-03T21:20:44.394Z,49.56
2022-11-03T21:23:15.043Z,49.56
2022-11-03T21:25:40.585Z,49.59
2022-11-03T21:28:06.505Z,49.64
2022-11-03T21:30:32.305Z,49.58
2022-11-03T21:32:57.856Z,49.44
2022-11-03T21:35:23.628Z,49.54
2022-11-03T21:37:49.212Z,49.47
2022-11-03T21:40:14.746Z,49.49
2022-11-03T21:43:00.258Z,49.45
2022-11-03T21:45:25.795Z,49.53
2022-11-03T21:48:13.852Z,49.50
2022-11-03T21:50:40.289Z,49.55
2022-11-03T21:53:06.230Z,49.51
2022-11-03T21:55:31.936Z,49.54
2022-11-03T21:57:57.485Z,49.55
2022-11-03T22:00:23.019Z,49.56
2022-11-03T22:02:48.905Z,49.58
2022-11-03T22:05:14.439Z,49.49
2022-11-03T22:07:39.987Z,49.43
2022-11-03T22:10:06.019Z,49.48
2022-11-03T22:12:31.568Z,49.53
2022-11-03T22:15:17.003Z,49.69
2022-11-03T22:17:43.933Z,49.53
2022-11-03T22:20:29.488Z,49.59
2022-11-03T22:23:14.944Z,49.58
2022-11-03T22:26:00.392Z,49.53
2022-11-03T22:28:25.947Z,49.52
2022-11-03T22:31:11.390Z,49.49
2022-11-03T22:33:56.863Z,49.41
2022-11-03T22:36:23.332Z,49.49
2022-11-03T22:39:08.846Z,49.61
2022-11-03T22:41:54.531Z,49.46
2022-11-03T22:44:40.085Z,49.49
2022-11-03T22:47:08.177Z,49.49
2022-11-03T22:49:34.210Z,49.50
2022-11-03T22:51:59.754Z,49.55
2022-11-03T22:54:25.297Z,49.57
2022-11-03T22:56:51.169Z,49.58
2022-11-03T22:59:16.708Z,49.45
2022-11-03T23:01:42.464Z,49.50
2022-11-03T23:04:08.104Z,49.46
2022-11-03T23:06:34.463Z,49.50
2022-11-03T23:09:00.618Z,49.60
2022-11-03T23:11:28.465Z,49.53
2022-11-03T23:13:57.000Z,49.49
2022-11-03T23:16:24.481Z,49.54
2022-11-03T23:19:09.930Z,49.45
2022-11-03T23:21:35.463Z,49.48
2022-11-03T23:24:20.959Z,49.55
2022-11-03T23:26:46.494Z,49.53
2022-11-03T23:29:12.303Z,49.53
2022-11-03T23:31:37.994Z,49.52
2022-11-03T23:34:03.720Z,49.47
2022-11-03T23:36:30.206Z,49.55
2022-11-03T23:38:56.371Z,49.53
2022-11-03T23:41:22.130Z,49.69
2022-11-03T23:43:47.685Z,49.56
2022-11-03T23:46:34.273Z,49.60
2022-11-03T23:48:59.823Z,49.56
2022-11-03T23:51:26.039Z,49.49
2022-11-03T23:53:52.096Z,49.52
2022-11-03T23:56:38.483Z,49.50
2022-11-03T23:59:04.335Z,49.62
